sensor_id;sensor_type;location;lat;lon;timestamp;P1;durP1;ratioP1;P2;durP2;ratioP2
20397;SDS011;10358;49.590;11.030;2023-04-20T00:02:18;7.50;;;3.73;;
20397;SDS011;10358;49.590;11.030;2023-04-20T00:04:45;5.80;;;3.70;;
20397;SDS011;10358;49.590;11.030;2023-04-20T00:07:11;5.13;;;3.43;;
20397;SDS011;10358;49.590;11.030;2023-04-20T00:09:37;5.50;;;3.33;;
20397;SDS011;10358;49.590;11.030;2023-04-20T00:12:02;6.73;;;3.40;;
20397;SDS011;10358;49.590;11.030;2023-04-20T00:14:28;8.93;;;3.57;;
20397;SDS011;10358;49.590;11.030;2023-04-20T00:16:54;4.93;;;3.20;;
20397;SDS011;10358;49.590;11.030;2023-04-20T00:19:20;10.73;;;3.57;;
20397;SDS011;10358;49.590;11.030;2023-04-20T00:21:46;7.93;;;3.60;;
20397;SDS011;10358;49.590;11.030;2023-04-20T00:24:12;10.43;;;3.87;;
20397;SDS011;10358;49.590;11.030;2023-04-20T00:26:37;6.73;;;3.80;;
20397;SDS011;10358;49.590;11.030;2023-04-20T00:29:03;7.27;;;4.03;;
20397;SDS011;10358;49.590;11.030;2023-04-20T00:31:29;6.23;;;3.90;;
20397;SDS011;10358;49.590;11.030;2023-04-20T00:33:55;6.30;;;3.90;;
20397;SDS011;10358;49.590;11.030;2023-04-20T00:36:21;8.53;;;4.30;;
20397;SDS011;10358;49.590;11.030;2023-04-20T00:38:46;8.83;;;4.10;;
20397;SDS011;10358;49.590;11.030;2023-04-20T00:41:12;7.70;;;4.47;;
20397;SDS011;10358;49.590;11.030;2023-04-20T00:43:47;6.10;;;3.67;;
20397;SDS011;10358;49.590;11.030;2023-04-20T00:46:17;8.23;;;4.27;;
20397;SDS011;10358;49.590;11.030;2023-04-20T00:48:43;7.90;;;4.30;;
20397;SDS011;10358;49.590;11.030;2023-04-20T00:51:09;6.87;;;4.40;;
20397;SDS011;10358;49.590;11.030;2023-04-20T00:53:35;5.70;;;4.00;;
20397;SDS011;10358;49.590;11.030;2023-04-20T00:56:00;8.70;;;4.60;;
20397;SDS011;10358;49.590;11.030;2023-04-20T00:58:26;6.60;;;4.13;;
20397;SDS011;10358;49.590;11.030;2023-04-20T01:00:52;7.03;;;4.13;;
20397;SDS011;10358;49.590;11.030;2023-04-20T01:03:18;6.80;;;4.00;;
20397;SDS011;10358;49.590;11.030;2023-04-20T01:05:44;7.70;;;3.43;;
20397;SDS011;10358;49.590;11.030;2023-04-20T01:08:10;6.37;;;3.63;;
20397;SDS011;10358;49.590;11.030;2023-04-20T01:10:35;5.83;;;3.73;;
20397;SDS011;10358;49.590;11.030;2023-04-20T01:13:01;8.17;;;3.93;;
20397;SDS011;10358;49.590;11.030;2023-04-20T01:15:27;6.90;;;3.83;;
20397;SDS011;10358;49.590;11.030;2023-04-20T01:17:53;7.60;;;4.20;;
20397;SDS011;10358;49.590;11.030;2023-04-20T01:20:19;7.63;;;4.23;;
20397;SDS011;10358;49.590;11.030;2023-04-20T01:22:48;11.93;;;4.73;;
20397;SDS011;10358;49.590;11.030;2023-04-20T01:25:15;9.13;;;4.10;;
20397;SDS011;10358;49.590;11.030;2023-04-20T01:27:41;9.47;;;3.97;;
20397;SDS011;10358;49.590;11.030;2023-04-20T01:30:07;8.17;;;4.27;;
20397;SDS011;10358;49.590;11.030;2023-04-20T01:32:33;8.87;;;3.83;;
20397;SDS011;10358;49.590;11.030;2023-04-20T01:35:00;7.83;;;3.80;;
20397;SDS011;10358;49.590;11.030;2023-04-20T01:37:26;8.00;;;3.80;;
20397;SDS011;10358;49.590;11.030;2023-04-20T01:39:52;6.90;;;3.80;;
20397;SDS011;10358;49.590;11.030;2023-04-20T01:42:17;8.10;;;3.73;;
20397;SDS011;10358;49.590;11.030;2023-04-20T01:44:43;5.00;;;3.40;;
20397;SDS011;10358;49.590;11.030;2023-04-20T01:47:08;9.13;;;3.83;;
20397;SDS011;10358;49.590;11.030;2023-04-20T01:49:34;9.17;;;3.93;;
20397;SDS011;10358;49.590;11.030;2023-04-20T01:51:59;7.90;;;3.87;;
20397;SDS011;10358;49.590;11.030;2023-04-20T01:54:25;9.80;;;4.17;;
20397;SDS011;10358;49.590;11.030;2023-04-20T01:56:50;7.53;;;4.20;;
20397;SDS011;10358;49.590;11.030;2023-04-20T01:59:16;8.87;;;3.90;;
20397;SDS011;10358;49.590;11.030;2023-04-20T02:01:42;7.87;;;4.00;;
20397;SDS011;10358;49.590;11.030;2023-04-20T02:04:07;9.87;;;4.20;;
20397;SDS011;10358;49.590;11.030;2023-04-20T02:06:33;10.50;;;4.37;;
20397;SDS011;10358;49.590;11.030;2023-04-20T02:08:58;8.60;;;4.27;;
20397;SDS011;10358;49.590;11.030;2023-04-20T02:11:24;8.97;;;4.30;;
20397;SDS011;10358;49.590;11.030;2023-04-20T02:13:50;7.83;;;4.70;;
20397;SDS011;10358;49.590;11.030;2023-04-20T02:16:16;7.17;;;3.93;;
20397;SDS011;10358;49.590;11.030;2023-04-20T02:18:43;7.17;;;4.40;;
20397;SDS011;10358;49.590;11.030;2023-04-20T02:21:09;8.30;;;4.40;;
20397;SDS011;10358;49.590;11.030;2023-04-20T02:23:35;8.57;;;4.77;;
20397;SDS011;10358;49.590;11.030;2023-04-20T02:26:01;6.70;;;4.27;;
20397;SDS011;10358;49.590;11.030;2023-04-20T02:28:26;7.47;;;4.80;;
20397;SDS011;10358;49.590;11.030;2023-04-20T02:30:52;10.10;;;5.10;;
20397;SDS011;10358;49.590;11.030;2023-04-20T02:33:17;8.50;;;4.63;;
20397;SDS011;10358;49.590;11.030;2023-04-20T02:35:45;10.30;;;5.07;;
20397;SDS011;10358;49.590;11.030;2023-04-20T02:38:10;8.67;;;5.20;;
20397;SDS011;10358;49.590;11.030;2023-04-20T02:40:36;10.37;;;5.13;;
20397;SDS011;10358;49.590;11.030;2023-04-20T02:43:02;8.37;;;4.73;;
20397;SDS011;10358;49.590;11.030;2023-04-20T02:45:27;12.73;;;5.40;;
20397;SDS011;10358;49.590;11.030;2023-04-20T02:47:54;12.23;;;5.43;;
20397;SDS011;10358;49.590;11.030;2023-04-20T02:50:20;11.77;;;5.87;;
20397;SDS011;10358;49.590;11.030;2023-04-20T02:52:46;9.77;;;5.00;;
20397;SDS011;10358;49.590;11.030;2023-04-20T02:55:11;11.87;;;5.77;;
20397;SDS011;10358;49.590;11.030;2023-04-20T02:57:37;7.77;;;4.50;;
20397;SDS011;10358;49.590;11.030;2023-04-20T03:00:02;8.20;;;4.47;;
20397;SDS011;10358;49.590;11.030;2023-04-20T03:02:28;7.30;;;4.50;;
20397;SDS011;10358;49.590;11.030;2023-04-20T03:04:54;6.57;;;4.40;;
20397;SDS011;10358;49.590;11.030;2023-04-20T03:07:19;9.73;;;5.20;;
20397;SDS011;10358;49.590;11.030;2023-04-20T03:09:45;12.37;;;4.83;;
20397;SDS011;10358;49.590;11.030;2023-04-20T03:12:10;9.70;;;5.17;;
20397;SDS011;10358;49.590;11.030;2023-04-20T03:14:36;10.67;;;5.13;;
20397;SDS011;10358;49.590;11.030;2023-04-20T03:17:01;9.57;;;5.23;;
20397;SDS011;10358;49.590;11.030;2023-04-20T03:19:27;10.87;;;5.03;;
20397;SDS011;10358;49.590;11.030;2023-04-20T03:21:52;10.23;;;5.13;;
20397;SDS011;10358;49.590;11.030;2023-04-20T03:24:18;11.80;;;5.07;;
20397;SDS011;10358;49.590;11.030;2023-04-20T03:26:43;9.97;;;5.13;;
20397;SDS011;10358;49.590;11.030;2023-04-20T03:29:09;8.60;;;4.43;;
20397;SDS011;10358;49.590;11.030;2023-04-20T03:31:34;9.40;;;4.77;;
20397;SDS011;10358;49.590;11.030;2023-04-20T03:34:00;8.30;;;4.50;;
20397;SDS011;10358;49.590;11.030;2023-04-20T03:36:25;9.93;;;4.27;;
20397;SDS011;10358;49.590;11.030;2023-04-20T03:38:52;7.83;;;4.93;;
20397;SDS011;10358;49.590;11.030;2023-04-20T03:41:17;8.17;;;5.00;;
20397;SDS011;10358;49.590;11.030;2023-04-20T03:43:43;7.43;;;4.87;;
20397;SDS011;10358;49.590;11.030;2023-04-20T03:46:09;9.37;;;4.63;;
20397;SDS011;10358;49.590;11.030;2023-04-20T03:48:34;7.03;;;4.60;;
20397;SDS011;10358;49.590;11.030;2023-04-20T03:51:00;10.83;;;4.77;;
20397;SDS011;10358;49.590;11.030;2023-04-20T03:53:26;7.47;;;4.43;;
20397;SDS011;10358;49.590;11.030;2023-04-20T03:55:53;7.53;;;4.60;;
20397;SDS011;10358;49.590;11.030;2023-04-20T03:58:18;9.30;;;4.47;;
20397;SDS011;10358;49.590;11.030;2023-04-20T04:00:44;9.23;;;5.10;;
20397;SDS011;10358;49.590;11.030;2023-04-20T04:03:10;7.60;;;5.07;;
20397;SDS011;10358;49.590;11.030;2023-04-20T04:05:36;9.33;;;5.47;;
20397;SDS011;10358;49.590;11.030;2023-04-20T04:08:01;10.40;;;5.57;;
20397;SDS011;10358;49.590;11.030;2023-04-20T04:10:27;8.97;;;6.00;;
20397;SDS011;10358;49.590;11.030;2023-04-20T04:12:52;10.03;;;6.03;;
20397;SDS011;10358;49.590;11.030;2023-04-20T04:15:18;13.17;;;5.47;;
20397;SDS011;10358;49.590;11.030;2023-04-20T04:17:44;11.57;;;5.70;;
20397;SDS011;10358;49.590;11.030;2023-04-20T04:20:10;10.90;;;5.80;;
20397;SDS011;10358;49.590;11.030;2023-04-20T04:22:36;11.47;;;5.13;;
20397;SDS011;10358;49.590;11.030;2023-04-20T04:25:02;12.00;;;5.17;;
20397;SDS011;10358;49.590;11.030;2023-04-20T04:27:28;10.63;;;5.13;;
20397;SDS011;10358;49.590;11.030;2023-04-20T04:29:58;8.63;;;5.37;;
20397;SDS011;10358;49.590;11.030;2023-04-20T04:32:30;11.20;;;5.20;;
20397;SDS011;10358;49.590;11.030;2023-04-20T04:34:58;8.07;;;5.53;;
20397;SDS011;10358;49.590;11.030;2023-04-20T04:37:25;15.00;;;5.73;;
20397;SDS011;10358;49.590;11.030;2023-04-20T04:39:51;10.27;;;5.50;;
20397;SDS011;10358;49.590;11.030;2023-04-20T04:42:17;10.63;;;5.60;;
20397;SDS011;10358;49.590;11.030;2023-04-20T04:44:42;10.53;;;5.50;;
20397;SDS011;10358;49.590;11.030;2023-04-20T04:47:08;12.70;;;6.27;;
20397;SDS011;10358;49.590;11.030;2023-04-20T04:49:35;12.77;;;6.43;;
20397;SDS011;10358;49.590;11.030;2023-04-20T04:52:01;11.33;;;6.40;;
20397;SDS011;10358;49.590;11.030;2023-04-20T04:54:27;11.97;;;6.40;;
20397;SDS011;10358;49.590;11.030;2023-04-20T04:56:53;13.40;;;6.17;;
20397;SDS011;10358;49.590;11.030;2023-04-20T04:59:18;16.83;;;7.33;;
20397;SDS011;10358;49.590;11.030;2023-04-20T05:01:44;10.43;;;6.63;;
20397;SDS011;10358;49.590;11.030;2023-04-20T05:04:09;10.70;;;6.60;;
20397;SDS011;10358;49.590;11.030;2023-04-20T05:06:35;12.27;;;7.17;;
20397;SDS011;10358;49.590;11.030;2023-04-20T05:09:00;13.90;;;7.20;;
20397;SDS011;10358;49.590;11.030;2023-04-20T05:11:26;11.43;;;7.20;;
20397;SDS011;10358;49.590;11.030;2023-04-20T05:13:51;11.60;;;6.40;;
20397;SDS011;10358;49.590;11.030;2023-04-20T05:16:18;12.07;;;6.83;;
20397;SDS011;10358;49.590;11.030;2023-04-20T05:18:44;12.33;;;6.77;;
20397;SDS011;10358;49.590;11.030;2023-04-20T05:21:09;11.83;;;7.07;;
20397;SDS011;10358;49.590;11.030;2023-04-20T05:23:35;12.67;;;6.77;;
20397;SDS011;10358;49.590;11.030;2023-04-20T05:26:01;11.40;;;6.93;;
20397;SDS011;10358;49.590;11.030;2023-04-20T05:28:26;12.50;;;6.83;;
20397;SDS011;10358;49.590;11.030;2023-04-20T05:30:52;13.23;;;6.80;;
20397;SDS011;10358;49.590;11.030;2023-04-20T05:33:19;13.77;;;7.20;;
20397;SDS011;10358;49.590;11.030;2023-04-20T05:35:45;12.60;;;7.37;;
20397;SDS011;10358;49.590;11.030;2023-04-20T05:38:10;14.03;;;7.77;;
20397;SDS011;10358;49.590;11.030;2023-04-20T05:40:36;14.83;;;7.83;;
20397;SDS011;10358;49.590;11.030;2023-04-20T05:43:01;13.10;;;7.37;;
20397;SDS011;10358;49.590;11.030;2023-04-20T05:45:27;13.63;;;8.40;;
20397;SDS011;10358;49.590;11.030;2023-04-20T05:47:56;13.60;;;7.57;;
20397;SDS011;10358;49.590;11.030;2023-04-20T05:50:24;13.57;;;8.07;;
20397;SDS011;10358;49.590;11.030;2023-04-20T05:52:51;13.47;;;8.77;;
20397;SDS011;10358;49.590;11.030;2023-04-20T05:55:17;13.37;;;8.13;;
20397;SDS011;10358;49.590;11.030;2023-04-20T05:57:43;13.60;;;8.10;;
20397;SDS011;10358;49.590;11.030;2023-04-20T06:00:10;14.57;;;9.03;;
20397;SDS011;10358;49.590;11.030;2023-04-20T06:02:37;11.90;;;8.03;;
20397;SDS011;10358;49.590;11.030;2023-04-20T06:05:03;13.13;;;8.47;;
20397;SDS011;10358;49.590;11.030;2023-04-20T06:07:28;13.80;;;7.83;;
20397;SDS011;10358;49.590;11.030;2023-04-20T06:09:54;12.23;;;7.97;;
20397;SDS011;10358;49.590;11.030;2023-04-20T06:12:20;12.03;;;7.90;;
20397;SDS011;10358;49.590;11.030;2023-04-20T06:14:45;13.83;;;8.57;;
20397;SDS011;10358;49.590;11.030;2023-04-20T06:17:11;14.83;;;8.57;;
20397;SDS011;10358;49.590;11.030;2023-04-20T06:19:36;12.87;;;8.37;;
20397;SDS011;10358;49.590;11.030;2023-04-20T06:22:05;12.03;;;7.93;;
20397;SDS011;10358;49.590;11.030;2023-04-20T06:24:32;10.30;;;7.67;;
20397;SDS011;10358;49.590;11.030;2023-04-20T06:26:58;12.87;;;7.43;;
20397;SDS011;10358;49.590;11.030;2023-04-20T06:29:25;12.47;;;7.90;;
20397;SDS011;10358;49.590;11.030;2023-04-20T06:31:50;10.50;;;7.03;;
20397;SDS011;10358;49.590;11.030;2023-04-20T06:34:16;9.37;;;6.67;;
20397;SDS011;10358;49.590;11.030;2023-04-20T06:36:42;9.70;;;7.07;;
20397;SDS011;10358;49.590;11.030;2023-04-20T06:39:07;10.43;;;6.50;;
20397;SDS011;10358;49.590;11.030;2023-04-20T06:41:35;10.43;;;6.33;;
20397;SDS011;10358;49.590;11.030;2023-04-20T06:44:02;9.27;;;6.37;;
20397;SDS011;10358;49.590;11.030;2023-04-20T06:46:27;9.13;;;6.60;;
20397;SDS011;10358;49.590;11.030;2023-04-20T06:48:53;9.70;;;6.50;;
20397;SDS011;10358;49.590;11.030;2023-04-20T06:51:18;10.80;;;6.43;;
20397;SDS011;10358;49.590;11.030;2023-04-20T06:53:44;10.90;;;6.53;;
20397;SDS011;10358;49.590;11.030;2023-04-20T06:56:09;9.87;;;6.03;;
20397;SDS011;10358;49.590;11.030;2023-04-20T06:58:36;8.57;;;6.30;;
20397;SDS011;10358;49.590;11.030;2023-04-20T07:01:01;8.47;;;5.77;;
20397;SDS011;10358;49.590;11.030;2023-04-20T07:03:27;8.90;;;5.50;;
20397;SDS011;10358;49.590;11.030;2023-04-20T07:05:52;10.87;;;5.07;;
20397;SDS011;10358;49.590;11.030;2023-04-20T07:08:18;9.13;;;5.63;;
20397;SDS011;10358;49.590;11.030;2023-04-20T07:10:44;9.83;;;5.57;;
20397;SDS011;10358;49.590;11.030;2023-04-20T07:13:09;8.43;;;5.77;;
20397;SDS011;10358;49.590;11.030;2023-04-20T07:15:35;11.30;;;5.40;;
20397;SDS011;10358;49.590;11.030;2023-04-20T07:18:00;10.67;;;5.67;;
20397;SDS011;10358;49.590;11.030;2023-04-20T07:20:26;10.80;;;5.17;;
20397;SDS011;10358;49.590;11.030;2023-04-20T07:22:52;8.90;;;4.93;;
20397;SDS011;10358;49.590;11.030;2023-04-20T07:25:18;6.67;;;4.80;;
20397;SDS011;10358;49.590;11.030;2023-04-20T07:27:43;7.63;;;5.17;;
20397;SDS011;10358;49.590;11.030;2023-04-20T07:30:09;7.30;;;4.90;;
20397;SDS011;10358;49.590;11.030;2023-04-20T07:32:35;8.17;;;4.47;;
20397;SDS011;10358;49.590;11.030;2023-04-20T07:35:02;5.97;;;4.17;;
20397;SDS011;10358;49.590;11.030;2023-04-20T07:37:28;9.00;;;5.00;;
20397;SDS011;10358;49.590;11.030;2023-04-20T07:39:55;7.53;;;4.70;;
20397;SDS011;10358;49.590;11.030;2023-04-20T07:42:21;7.50;;;5.27;;
20397;SDS011;10358;49.590;11.030;2023-04-20T07:44:46;7.17;;;5.10;;
20397;SDS011;10358;49.590;11.030;2023-04-20T07:47:12;7.27;;;4.90;;
20397;SDS011;10358;49.590;11.030;2023-04-20T07:49:38;8.83;;;5.10;;
20397;SDS011;10358;49.590;11.030;2023-04-20T07:52:05;10.30;;;4.93;;
20397;SDS011;10358;49.590;11.030;2023-04-20T07:54:30;7.67;;;4.77;;
20397;SDS011;10358;49.590;11.030;2023-04-20T07:56:56;7.83;;;4.80;;
20397;SDS011;10358;49.590;11.030;2023-04-20T07:59:23;7.53;;;4.80;;
20397;SDS011;10358;49.590;11.030;2023-04-20T08:01:48;8.33;;;4.73;;
20397;SDS011;10358;49.590;11.030;2023-04-20T08:04:14;8.07;;;5.03;;
20397;SDS011;10358;49.590;11.030;2023-04-20T08:06:40;9.00;;;5.00;;
20397;SDS011;10358;49.590;11.030;2023-04-20T08:09:06;6.30;;;4.40;;
20397;SDS011;10358;49.590;11.030;2023-04-20T08:11:31;6.70;;;4.50;;
20397;SDS011;10358;49.590;11.030;2023-04-20T08:13:57;6.67;;;4.60;;
20397;SDS011;10358;49.590;11.030;2023-04-20T08:16:23;8.73;;;4.70;;
20397;SDS011;10358;49.590;11.030;2023-04-20T08:18:48;7.40;;;4.90;;
20397;SDS011;10358;49.590;11.030;2023-04-20T08:21:14;8.30;;;4.87;;
20397;SDS011;10358;49.590;11.030;2023-04-20T08:23:39;7.10;;;4.77;;
20397;SDS011;10358;49.590;11.030;2023-04-20T08:26:05;7.30;;;5.13;;
20397;SDS011;10358;49.590;11.030;2023-04-20T08:28:30;6.50;;;4.30;;
20397;SDS011;10358;49.590;11.030;2023-04-20T08:30:56;8.10;;;4.47;;
20397;SDS011;10358;49.590;11.030;2023-04-20T08:33:21;8.13;;;4.43;;
20397;SDS011;10358;49.590;11.030;2023-04-20T08:35:49;7.47;;;4.80;;
20397;SDS011;10358;49.590;11.030;2023-04-20T08:38:15;7.87;;;5.40;;
20397;SDS011;10358;49.590;11.030;2023-04-20T08:40:41;9.63;;;5.83;;
20397;SDS011;10358;49.590;11.030;2023-04-20T08:43:07;7.77;;;4.93;;
20397;SDS011;10358;49.590;11.030;2023-04-20T08:45:33;8.83;;;5.13;;
20397;SDS011;10358;49.590;11.030;2023-04-20T08:47:58;7.93;;;4.90;;
20397;SDS011;10358;49.590;11.030;2023-04-20T08:50:35;9.00;;;4.20;;
20397;SDS011;10358;49.590;11.030;2023-04-20T08:53:02;8.27;;;4.80;;
20397;SDS011;10358;49.590;11.030;2023-04-20T08:55:28;6.73;;;4.33;;
20397;SDS011;10358;49.590;11.030;2023-04-20T08:57:54;6.33;;;4.53;;
20397;SDS011;10358;49.590;11.030;2023-04-20T09:00:19;8.47;;;4.73;;
20397;SDS011;10358;49.590;11.030;2023-04-20T09:02:52;8.83;;;5.33;;
20397;SDS011;10358;49.590;11.030;2023-04-20T09:05:26;7.77;;;5.20;;
20397;SDS011;10358;49.590;11.030;2023-04-20T09:07:53;9.93;;;4.73;;
20397;SDS011;10358;49.590;11.030;2023-04-20T09:10:21;9.20;;;4.93;;
20397;SDS011;10358;49.590;11.030;2023-04-20T09:12:50;7.00;;;4.50;;
20397;SDS011;10358;49.590;11.030;2023-04-20T09:15:26;7.37;;;4.77;;
20397;SDS011;10358;49.590;11.030;2023-04-20T09:17:52;6.40;;;4.50;;
20397;SDS011;10358;49.590;11.030;2023-04-20T09:20:31;7.23;;;4.87;;
20397;SDS011;10358;49.590;11.030;2023-04-20T09:23:09;8.27;;;4.67;;
20397;SDS011;10358;49.590;11.030;2023-04-20T09:25:39;8.80;;;5.10;;
20397;SDS011;10358;49.590;11.030;2023-04-20T09:28:06;7.83;;;5.10;;
20397;SDS011;10358;49.590;11.030;2023-04-20T09:30:40;6.43;;;4.57;;
20397;SDS011;10358;49.590;11.030;2023-04-20T09:33:07;7.20;;;5.10;;
20397;SDS011;10358;49.590;11.030;2023-04-20T09:35:35;7.87;;;5.30;;
20397;SDS011;10358;49.590;11.030;2023-04-20T09:38:06;11.73;;;5.00;;
20397;SDS011;10358;49.590;11.030;2023-04-20T09:40:32;8.23;;;4.90;;
20397;SDS011;10358;49.590;11.030;2023-04-20T09:43:02;7.67;;;4.97;;
20397;SDS011;10358;49.590;11.030;2023-04-20T09:45:41;9.30;;;5.20;;
20397;SDS011;10358;49.590;11.030;2023-04-20T09:48:08;7.90;;;4.80;;
20397;SDS011;10358;49.590;11.030;2023-04-20T09:50:35;8.80;;;4.80;;
20397;SDS011;10358;49.590;11.030;2023-04-20T09:53:04;7.80;;;4.90;;
20397;SDS011;10358;49.590;11.030;2023-04-20T09:55:30;8.63;;;5.23;;
20397;SDS011;10358;49.590;11.030;2023-04-20T09:57:57;7.97;;;5.23;;
20397;SDS011;10358;49.590;11.030;2023-04-20T10:00:25;7.17;;;4.90;;
20397;SDS011;10358;49.590;11.030;2023-04-20T10:02:51;8.50;;;5.30;;
20397;SDS011;10358;49.590;11.030;2023-04-20T10:05:17;7.60;;;4.93;;
20397;SDS011;10358;49.590;11.030;2023-04-20T10:07:42;6.93;;;4.77;;
20397;SDS011;10358;49.590;11.030;2023-04-20T10:10:09;8.03;;;5.13;;
20397;SDS011;10358;49.590;11.030;2023-04-20T10:12:49;9.13;;;5.30;;
20397;SDS011;10358;49.590;11.030;2023-04-20T10:15:19;9.57;;;5.50;;
20397;SDS011;10358;49.590;11.030;2023-04-20T10:17:49;8.63;;;5.33;;
20397;SDS011;10358;49.590;11.030;2023-04-20T10:20:22;8.37;;;5.77;;
20397;SDS011;10358;49.590;11.030;2023-04-20T10:22:50;8.83;;;5.23;;
20397;SDS011;10358;49.590;11.030;2023-04-20T10:25:17;8.77;;;5.67;;
20397;SDS011;10358;49.590;11.030;2023-04-20T10:27:58;9.47;;;5.50;;
20397;SDS011;10358;49.590;11.030;2023-04-20T10:30:29;9.50;;;5.07;;
20397;SDS011;10358;49.590;11.030;2023-04-20T10:33:02;6.83;;;4.90;;
20397;SDS011;10358;49.590;11.030;2023-04-20T10:35:28;6.97;;;4.90;;
20397;SDS011;10358;49.590;11.030;2023-04-20T10:38:04;8.23;;;4.83;;
20397;SDS011;10358;49.590;11.030;2023-04-20T10:40:30;9.40;;;5.27;;
20397;SDS011;10358;49.590;11.030;2023-04-20T10:42:55;8.73;;;5.47;;
20397;SDS011;10358;49.590;11.030;2023-04-20T10:45:21;10.07;;;5.33;;
20397;SDS011;10358;49.590;11.030;2023-04-20T10:48:05;10.30;;;5.70;;
20397;SDS011;10358;49.590;11.030;2023-04-20T10:50:32;8.13;;;5.50;;
20397;SDS011;10358;49.590;11.030;2023-04-20T10:52:58;11.87;;;6.13;;
20397;SDS011;10358;49.590;11.030;2023-04-20T10:55:24;7.23;;;5.30;;
20397;SDS011;10358;49.590;11.030;2023-04-20T10:57:50;7.97;;;5.50;;
20397;SDS011;10358;49.590;11.030;2023-04-20T11:00:17;9.20;;;5.40;;
20397;SDS011;10358;49.590;11.030;2023-04-20T11:02:48;8.03;;;5.23;;
20397;SDS011;10358;49.590;11.030;2023-04-20T11:05:18;8.50;;;4.97;;
20397;SDS011;10358;49.590;11.030;2023-04-20T11:07:51;7.80;;;5.40;;
20397;SDS011;10358;49.590;11.030;2023-04-20T11:10:35;8.43;;;4.70;;
20397;SDS011;10358;49.590;11.030;2023-04-20T11:13:02;8.03;;;5.00;;
20397;SDS011;10358;49.590;11.030;2023-04-20T11:15:31;6.20;;;4.80;;
20397;SDS011;10358;49.590;11.030;2023-04-20T11:18:10;7.37;;;4.80;;
20397;SDS011;10358;49.590;11.030;2023-04-20T11:20:36;6.93;;;4.40;;
20397;SDS011;10358;49.590;11.030;2023-04-20T11:23:13;7.73;;;4.80;;
20397;SDS011;10358;49.590;11.030;2023-04-20T11:25:47;5.90;;;4.27;;
20397;SDS011;10358;49.590;11.030;2023-04-20T11:28:16;6.17;;;4.33;;
20397;SDS011;10358;49.590;11.030;2023-04-20T11:30:42;7.27;;;4.50;;
20397;SDS011;10358;49.590;11.030;2023-04-20T11:33:08;6.23;;;4.60;;
20397;SDS011;10358;49.590;11.030;2023-04-20T11:35:37;6.40;;;4.53;;
20397;SDS011;10358;49.590;11.030;2023-04-20T11:38:06;6.93;;;4.20;;
20397;SDS011;10358;49.590;11.030;2023-04-20T11:40:32;5.97;;;4.20;;
20397;SDS011;10358;49.590;11.030;2023-04-20T11:42:59;5.33;;;4.33;;
20397;SDS011;10358;49.590;11.030;2023-04-20T11:45:25;7.33;;;4.50;;
20397;SDS011;10358;49.590;11.030;2023-04-20T11:47:52;5.37;;;4.20;;
20397;SDS011;10358;49.590;11.030;2023-04-20T11:50:19;5.93;;;4.00;;
20397;SDS011;10358;49.590;11.030;2023-04-20T11:52:46;6.57;;;4.40;;
20397;SDS011;10358;49.590;11.030;2023-04-20T11:55:12;5.53;;;4.03;;
20397;SDS011;10358;49.590;11.030;2023-04-20T11:57:37;6.93;;;4.30;;
20397;SDS011;10358;49.590;11.030;2023-04-20T12:00:03;8.07;;;4.13;;
20397;SDS011;10358;49.590;11.030;2023-04-20T12:02:31;8.60;;;4.43;;
20397;SDS011;10358;49.590;11.030;2023-04-20T12:04:56;6.03;;;4.27;;
20397;SDS011;10358;49.590;11.030;2023-04-20T12:07:22;5.83;;;3.70;;
20397;SDS011;10358;49.590;11.030;2023-04-20T12:09:47;5.77;;;4.40;;
20397;SDS011;10358;49.590;11.030;2023-04-20T12:12:13;6.10;;;4.17;;
20397;SDS011;10358;49.590;11.030;2023-04-20T12:14:38;5.30;;;4.03;;
20397;SDS011;10358;49.590;11.030;2023-04-20T12:17:04;6.43;;;4.57;;
20397;SDS011;10358;49.590;11.030;2023-04-20T12:19:30;7.80;;;4.87;;
20397;SDS011;10358;49.590;11.030;2023-04-20T12:21:56;8.03;;;4.60;;
20397;SDS011;10358;49.590;11.030;2023-04-20T12:24:21;7.00;;;4.90;;
20397;SDS011;10358;49.590;11.030;2023-04-20T12:26:47;7.70;;;5.43;;
20397;SDS011;10358;49.590;11.030;2023-04-20T12:29:13;6.60;;;5.17;;
20397;SDS011;10358;49.590;11.030;2023-04-20T12:31:38;8.17;;;5.13;;
20397;SDS011;10358;49.590;11.030;2023-04-20T12:34:04;6.60;;;4.90;;
20397;SDS011;10358;49.590;11.030;2023-04-20T12:36:30;6.20;;;4.80;;
20397;SDS011;10358;49.590;11.030;2023-04-20T12:38:56;6.97;;;4.73;;
20397;SDS011;10358;49.590;11.030;2023-04-20T12:41:22;6.67;;;4.87;;
20397;SDS011;10358;49.590;11.030;2023-04-20T12:43:48;6.23;;;4.90;;
20397;SDS011;10358;49.590;11.030;2023-04-20T12:46:14;6.47;;;4.53;;
20397;SDS011;10358;49.590;11.030;2023-04-20T12:48:40;6.27;;;4.80;;
20397;SDS011;10358;49.590;11.030;2023-04-20T12:51:06;6.17;;;4.60;;
20397;SDS011;10358;49.590;11.030;2023-04-20T12:53:32;5.40;;;4.50;;
20397;SDS011;10358;49.590;11.030;2023-04-20T12:55:57;5.93;;;4.20;;
20397;SDS011;10358;49.590;11.030;2023-04-20T12:58:23;6.20;;;4.77;;
20397;SDS011;10358;49.590;11.030;2023-04-20T13:00:49;7.20;;;4.63;;
20397;SDS011;10358;49.590;11.030;2023-04-20T13:03:15;7.77;;;4.77;;
20397;SDS011;10358;49.590;11.030;2023-04-20T13:05:40;5.67;;;4.33;;
20397;SDS011;10358;49.590;11.030;2023-04-20T13:08:08;7.17;;;4.90;;
20397;SDS011;10358;49.590;11.030;2023-04-20T13:10:34;6.03;;;4.67;;
20397;SDS011;10358;49.590;11.030;2023-04-20T13:13:00;8.97;;;4.97;;
20397;SDS011;10358;49.590;11.030;2023-04-20T13:15:26;7.23;;;4.90;;
20397;SDS011;10358;49.590;11.030;2023-04-20T13:17:51;8.47;;;5.03;;
20397;SDS011;10358;49.590;11.030;2023-04-20T13:20:17;6.30;;;4.67;;
20397;SDS011;10358;49.590;11.030;2023-04-20T13:22:43;7.67;;;5.17;;
20397;SDS011;10358;49.590;11.030;2023-04-20T13:25:08;7.30;;;5.10;;
20397;SDS011;10358;49.590;11.030;2023-04-20T13:27:34;9.13;;;5.77;;
20397;SDS011;10358;49.590;11.030;2023-04-20T13:30:00;7.37;;;5.40;;
20397;SDS011;10358;49.590;11.030;2023-04-20T13:32:25;9.60;;;5.27;;
20397;SDS011;10358;49.590;11.030;2023-04-20T13:34:51;7.40;;;4.97;;
20397;SDS011;10358;49.590;11.030;2023-04-20T13:37:17;8.77;;;5.47;;
20397;SDS011;10358;49.590;11.030;2023-04-20T13:39:42;9.03;;;5.33;;
20397;SDS011;10358;49.590;11.030;2023-04-20T13:42:08;9.13;;;5.50;;
20397;SDS011;10358;49.590;11.030;2023-04-20T13:44:34;10.30;;;5.60;;
20397;SDS011;10358;49.590;11.030;2023-04-20T13:47:00;7.13;;;5.33;;
20397;SDS011;10358;49.590;11.030;2023-04-20T13:49:25;9.10;;;5.83;;
20397;SDS011;10358;49.590;11.030;2023-04-20T13:51:51;10.13;;;5.50;;
20397;SDS011;10358;49.590;11.030;2023-04-20T13:54:17;7.70;;;5.47;;
20397;SDS011;10358;49.590;11.030;2023-04-20T13:56:42;8.57;;;5.40;;
20397;SDS011;10358;49.590;11.030;2023-04-20T13:59:08;7.30;;;5.53;;
20397;SDS011;10358;49.590;11.030;2023-04-20T14:01:33;8.30;;;5.67;;
20397;SDS011;10358;49.590;11.030;2023-04-20T14:03:59;8.83;;;5.67;;
20397;SDS011;10358;49.590;11.030;2023-04-20T14:06:25;8.63;;;5.67;;
20397;SDS011;10358;49.590;11.030;2023-04-20T14:08:51;9.43;;;6.03;;
20397;SDS011;10358;49.590;11.030;2023-04-20T14:11:17;7.80;;;5.33;;
20397;SDS011;10358;49.590;11.030;2023-04-20T14:13:43;7.93;;;5.27;;
20397;SDS011;10358;49.590;11.030;2023-04-20T14:16:09;9.93;;;6.20;;
20397;SDS011;10358;49.590;11.030;2023-04-20T14:18:37;8.27;;;5.83;;
20397;SDS011;10358;49.590;11.030;2023-04-20T14:21:03;10.50;;;6.40;;
20397;SDS011;10358;49.590;11.030;2023-04-20T14:23:28;10.67;;;6.00;;
20397;SDS011;10358;49.590;11.030;2023-04-20T14:25:55;8.97;;;6.07;;
20397;SDS011;10358;49.590;11.030;2023-04-20T14:28:20;9.23;;;5.77;;